HST,Max TemperatureF,Mean TemperatureF,Min TemperatureF,Max Dew PointF,MeanDew PointF,Min DewpointF,Max Humidity, Mean Humidity, Min Humidity, Max Sea Level PressureIn, Mean Sea Level PressureIn, Min Sea Level PressureIn, Max VisibilityMiles, Mean VisibilityMiles, Min VisibilityMiles, Max Wind SpeedMPH, Mean Wind SpeedMPH, Max Gust SpeedMPH,PrecipitationIn, CloudCover, Events, WindDirDegrees
2014-1-1,82,73,63,70,66,61,93,80,67,30.00,29.95,29.88,10,9,3,10,4,14,0.00,1,,89
2014-1-2,83,74,65,72,67,61,93,76,58,29.92,29.84,29.77,10,10,10,30,15,37,0.01,2,Rain,196
2014-1-3,81,75,69,70,65,58,97,76,54,29.92,29.82,29.74,10,9,2,25,11,32,0.95,7,Rain,348
2014-1-4,80,74,67,60,57,53,76,61,45,30.01,29.95,29.90,10,10,10,21,11,24,T,4,,48
2014-1-5,79,71,63,58,55,50,78,59,39,30.03,29.99,29.94,10,10,10,17,10,22,0.00,1,,49
2014-1-6,79,72,64,58,55,52,73,56,39,30.09,30.05,30.00,10,10,10,25,13,30,T,2,,52
2014-1-7,80,73,65,63,59,55,81,69,56,30.12,30.07,30.02,10,10,10,28,15,31,0.04,4,Rain,49
2014-1-8,79,71,62,66,61,57,90,72,54,30.07,30.02,29.95,10,10,7,24,12,28,0.06,3,,38
2014-1-9,82,70,57,68,62,57,93,76,58,30.05,29.99,29.92,10,10,10,21,7,23,T,2,Rain,56
2014-1-10,80,73,65,69,66,61,90,76,62,30.03,29.97,29.90,10,10,10,20,7,23,0.01,3,,35
2014-1-11,82,72,62,70,65,58,93,78,62,29.99,29.95,29.89,10,10,10,14,6,16,0.00,1,,26
2014-1-12,87,76,64,70,66,62,93,74,55,30.01,29.96,29.90,10,10,10,15,5,20,0.00,1,,171
2014-1-13,83,74,64,72,68,63,100,83,65,30.00,29.95,29.90,10,10,10,10,3,15,0.14,2,,118
2014-1-14,81,75,68,72,67,64,97,80,62,29.94,29.90,29.85,10,10,6,20,8,24,T,4,Rain,196
2014-1-15,83,75,66,68,66,64,87,73,58,29.94,29.90,29.86,10,10,10,26,12,31,T,1,Rain,188
2014-1-16,83,75,66,69,67,64,93,78,63,30.01,29.96,29.91,10,10,7,21,9,24,0.02,4,Rain,180
2014-1-17,83,74,64,72,67,64,93,78,63,30.05,30.00,29.97,10,10,10,15,5,20,0.01,4,,45
2014-1-18,84,74,63,69,66,61,97,74,51,30.07,30.02,29.95,10,10,10,13,6,16,0.00,1,,70
2014-1-19,83,73,62,68,65,60,93,80,67,29.99,29.96,29.92,10,10,10,10,5,15,0.00,1,,96
2014-1-20,81,72,63,68,65,62,100,79,58,29.99,29.93,29.88,10,10,10,9,5,,0.00,2,,89
2014-1-21,84,73,62,70,66,60,93,74,54,29.94,29.88,29.83,10,10,10,29,14,36,T,3,,201
2014-1-22,82,76,69,71,65,54,97,74,51,29.96,29.85,29.78,10,9,2,30,16,37,0.88,6,Rain,254
2014-1-23,79,70,61,71,60,53,100,72,43,30.01,29.94,29.87,10,10,10,20,8,24,0.00,3,,33
2014-1-24,80,68,55,58,54,50,87,62,37,29.98,29.90,29.83,10,10,10,16,6,21,0.00,0,,175
2014-1-25,80,71,61,59,57,56,84,66,48,29.88,29.84,29.76,10,10,10,32,14,39,0.00,1,,201
2014-1-26,83,74,65,70,64,56,100,76,51,29.95,29.89,29.82,10,8,2,25,15,30,0.11,4,Rain,232
2014-1-27,73,70,66,70,67,61,100,92,84,30.07,29.95,29.89,10,5,2,18,8,,0.00,8,Rain,14
2014-1-28,72,69,66,66,64,60,100,87,73,30.12,30.06,30.00,10,8,2,28,11,33,1.06,7,Rain,45
2014-1-29,76,71,65,70,66,60,97,85,73,30.08,30.03,29.98,10,9,2,23,9,26,0.76,6,Rain,42
2014-1-30,83,72,60,70,65,59,100,78,55,30.01,29.94,29.88,10,10,10,18,5,24,0.00,1,,112
2014-1-31,84,75,65,70,66,64,100,78,55,29.94,29.89,29.83,10,10,10,21,8,28,0.00,2,,192